createdAt,value
2018-09-30T00:00:55.578Z,11.65
2018-09-30T00:03:24.146Z,11.56
2018-09-30T00:05:52.784Z,11.52
2018-09-30T00:08:21.601Z,11.49
2018-09-30T00:10:50.242Z,11.51
2018-09-30T00:13:18.941Z,11.50
2018-09-30T00:15:47.636Z,11.50
2018-09-30T00:18:16.356Z,11.42
2018-09-30T00:20:44.908Z,11.36
2018-09-30T00:23:13.435Z,11.32
2018-09-30T00:25:47.064Z,7.33
2018-09-30T00:28:15.730Z,11.30
2018-09-30T00:30:44.326Z,11.32
2018-09-30T00:33:12.876Z,11.31
2018-09-30T00:35:41.470Z,11.25
2018-09-30T00:38:10.066Z,11.23
2018-09-30T00:40:38.603Z,11.20
2018-09-30T00:43:07.234Z,11.19
2018-09-30T00:45:35.859Z,11.18
2018-09-30T00:48:04.505Z,11.18
2018-09-30T00:50:33.076Z,11.19
2018-09-30T00:53:01.730Z,11.17
2018-09-30T00:55:30.353Z,11.14
2018-09-30T00:57:58.932Z,11.10
2018-09-30T01:00:27.563Z,11.07
2018-09-30T01:02:56.133Z,11.05
2018-09-30T01:05:24.774Z,11.00
2018-09-30T01:07:53.442Z,11.00
2018-09-30T01:10:22.050Z,10.98
2018-09-30T01:12:50.741Z,10.96
2018-09-30T01:15:19.322Z,10.94
2018-09-30T01:17:47.889Z,10.91
2018-09-30T01:20:16.464Z,10.91
2018-09-30T01:22:44.977Z,10.90
2018-09-30T01:25:13.494Z,10.89
2018-09-30T01:27:42.007Z,10.86
2018-09-30T01:30:10.594Z,10.83
2018-09-30T01:32:39.143Z,10.80
2018-09-30T01:35:07.759Z,10.76
2018-09-30T01:37:36.341Z,10.75
2018-09-30T01:40:04.845Z,10.68
2018-09-30T01:42:33.369Z,10.60
2018-09-30T01:45:01.884Z,10.55
2018-09-30T01:47:30.448Z,10.52
2018-09-30T01:49:59.130Z,10.51
2018-09-30T01:52:38.823Z,10.52
2018-09-30T01:55:07.373Z,10.41
2018-09-30T01:57:35.884Z,10.40
2018-09-30T02:00:04.384Z,10.40
2018-09-30T02:02:32.935Z,10.39
2018-09-30T02:05:01.521Z,10.37
2018-09-30T02:07:30.004Z,10.36
2018-09-30T02:09:58.508Z,10.39
2018-09-30T02:12:27.075Z,10.37
2018-09-30T02:14:55.613Z,10.36
2018-09-30T02:17:24.182Z,10.36
2018-09-30T02:19:52.734Z,10.38
2018-09-30T02:22:21.228Z,10.37
2018-09-30T02:24:49.840Z,10.36
2018-09-30T02:27:18.392Z,10.36
2018-09-30T02:29:47.128Z,10.37
2018-09-30T02:32:15.697Z,10.35
2018-09-30T02:34:44.272Z,10.36
2018-09-30T02:37:12.851Z,10.35
2018-09-30T02:39:41.372Z,10.31
2018-09-30T02:42:10.493Z,10.30
2018-09-30T02:44:39.044Z,10.30
2018-09-30T02:47:07.603Z,10.30
2018-09-30T02:49:36.213Z,10.31
2018-09-30T02:52:04.749Z,10.29
2018-09-30T02:54:33.388Z,10.26
2018-09-30T02:57:01.948Z,10.24
2018-09-30T02:59:30.512Z,10.21
2018-09-30T03:01:59.017Z,10.20
2018-09-30T03:04:27.557Z,10.19
2018-09-30T03:07:01.252Z,10.17
2018-09-30T03:09:29.804Z,10.14
2018-09-30T03:11:58.401Z,10.10
2018-09-30T03:14:26.956Z,10.09
2018-09-30T03:16:55.554Z,10.09
2018-09-30T03:19:24.148Z,10.05
2018-09-30T03:21:52.783Z,10.03
2018-09-30T03:24:21.453Z,10.01
2018-09-30T03:26:49.994Z,9.98
2018-09-30T03:29:18.603Z,9.98
2018-09-30T03:31:47.156Z,9.93
2018-09-30T03:34:15.828Z,9.89
2018-09-30T03:36:44.453Z,9.83
2018-09-30T03:39:13.146Z,9.80
2018-09-30T03:41:41.746Z,9.81
2018-09-30T03:44:10.400Z,9.81
2018-09-30T03:46:39.168Z,9.79
2018-09-30T03:49:07.956Z,9.78
2018-09-30T03:51:36.643Z,9.77
2018-09-30T03:54:05.300Z,9.73
2018-09-30T03:56:33.906Z,9.71
2018-09-30T03:59:02.464Z,9.69
2018-09-30T04:01:31.046Z,9.72
2018-09-30T04:03:59.811Z,9.70
2018-09-30T04:06:28.661Z,9.70
2018-09-30T04:08:57.212Z,9.69
2018-09-30T04:11:25.908Z,9.69
2018-09-30T04:13:54.524Z,9.68
2018-09-30T04:16:23.087Z,9.66
2018-09-30T04:18:51.661Z,9.09
2018-09-30T04:21:20.312Z,9.65
2018-09-30T04:23:48.880Z,9.66
2018-09-30T04:26:17.466Z,9.64
2018-09-30T04:28:45.980Z,9.64
2018-09-30T04:31:14.601Z,9.64
2018-09-30T04:33:43.248Z,9.64
2018-09-30T04:36:11.836Z,9.64
2018-09-30T04:38:40.425Z,9.62
2018-09-30T04:41:09.063Z,9.61
2018-09-30T04:43:37.641Z,9.62
2018-09-30T04:46:06.342Z,9.62
2018-09-30T04:48:34.919Z,9.63
2018-09-30T04:51:03.448Z,9.61
2018-09-30T04:53:32.022Z,9.57
2018-09-30T04:56:00.579Z,9.55
2018-09-30T04:58:29.091Z,9.54
2018-09-30T05:00:58.024Z,9.53
2018-09-30T05:03:27.123Z,9.52
2018-09-30T05:05:56.187Z,9.50
2018-09-30T05:08:25.712Z,9.49
2018-09-30T05:10:54.817Z,9.48
2018-09-30T05:13:24.079Z,9.51
2018-09-30T05:15:53.036Z,9.52
2018-09-30T05:18:22.108Z,9.52
2018-09-30T05:20:50.890Z,9.51
2018-09-30T05:23:19.878Z,9.52
2018-09-30T05:25:48.728Z,9.53
2018-09-30T05:28:17.809Z,9.55
2018-09-30T05:30:46.668Z,9.55
2018-09-30T05:33:15.634Z,9.61
2018-09-30T05:35:44.617Z,9.59
2018-09-30T05:38:13.501Z,9.61
2018-09-30T05:40:42.493Z,9.63
2018-09-30T05:43:11.556Z,9.68
2018-09-30T05:45:40.377Z,9.70
2018-09-30T05:48:09.322Z,9.73
2018-09-30T05:50:38.334Z,9.73
2018-09-30T05:53:07.513Z,9.76
2018-09-30T05:55:36.399Z,9.78
2018-09-30T05:58:05.394Z,9.79
2018-09-30T06:00:34.294Z,9.81
2018-09-30T06:03:03.763Z,9.85
2018-09-30T06:05:32.818Z,9.91
2018-09-30T06:08:01.744Z,9.97
2018-09-30T06:10:30.813Z,10.07
2018-09-30T06:12:59.833Z,10.11
2018-09-30T06:15:28.971Z,10.11
2018-09-30T06:17:58.174Z,10.17
2018-09-30T06:20:27.056Z,10.21
2018-09-30T06:22:56.095Z,10.23
2018-09-30T06:25:25.106Z,10.30
2018-09-30T06:27:54.167Z,10.44
2018-09-30T06:30:22.994Z,10.16
2018-09-30T06:32:52.142Z,11.09
2018-09-30T06:35:21.200Z,11.59
2018-09-30T06:37:50.206Z,12.27
2018-09-30T06:40:19.305Z,13.03
2018-09-30T06:42:48.494Z,13.78
2018-09-30T06:45:17.682Z,14.55
2018-09-30T06:47:46.626Z,15.28
2018-09-30T06:50:15.878Z,15.94
2018-09-30T06:52:44.873Z,16.46
2018-09-30T06:55:13.869Z,17.04
2018-09-30T06:57:42.856Z,17.62
2018-09-30T07:00:11.936Z,18.22
2018-09-30T07:02:40.946Z,18.76
2018-09-30T07:05:10.106Z,19.37
2018-09-30T07:07:39.122Z,19.90
2018-09-30T07:10:08.099Z,20.40
2018-09-30T07:12:37.310Z,20.83
2018-09-30T07:15:06.120Z,21.34
2018-09-30T07:17:34.888Z,21.81
2018-09-30T07:20:03.833Z,22.25
2018-09-30T07:22:32.599Z,22.64
2018-09-30T07:25:01.824Z,23.13
2018-09-30T07:27:30.909Z,23.62
2018-09-30T07:30:00.312Z,24.07
2018-09-30T07:32:29.638Z,24.52
2018-09-30T07:34:58.906Z,25.04
2018-09-30T07:37:28.209Z,25.51
2018-09-30T07:39:57.776Z,25.97
2018-09-30T07:42:26.706Z,26.38
2018-09-30T07:44:55.692Z,26.88
2018-09-30T07:47:24.683Z,27.34
2018-09-30T07:49:53.862Z,27.78
2018-09-30T07:52:22.869Z,28.28
2018-09-30T07:54:52.120Z,28.74
2018-09-30T07:57:21.499Z,29.20
2018-09-30T07:59:50.168Z,29.58
2018-09-30T08:02:19.148Z,29.97
2018-09-30T08:04:48.111Z,30.38
2018-09-30T08:07:16.919Z,30.79
2018-09-30T08:09:45.699Z,31.21
2018-09-30T08:12:14.803Z,31.70
2018-09-30T08:14:43.517Z,32.21
2018-09-30T08:17:12.423Z,32.68
2018-09-30T08:19:41.337Z,33.16
2018-09-30T08:22:10.130Z,33.58
2018-09-30T08:24:38.975Z,33.91
2018-09-30T08:27:07.850Z,34.31
2018-09-30T08:29:36.625Z,34.71
2018-09-30T08:32:05.778Z,35.17
2018-09-30T08:34:34.672Z,35.58
2018-09-30T08:37:03.643Z,35.98
2018-09-30T08:39:32.556Z,36.37
2018-09-30T08:42:01.573Z,36.82
2018-09-30T08:44:30.206Z,37.26
2018-09-30T08:46:58.972Z,37.65
2018-09-30T08:49:28.032Z,37.99
2018-09-30T08:51:56.858Z,38.33
2018-09-30T08:54:25.852Z,38.72
2018-09-30T08:56:54.909Z,39.11
2018-09-30T08:59:23.937Z,39.46
2018-09-30T09:01:52.937Z,39.84
2018-09-30T09:04:21.961Z,40.19
2018-09-30T09:06:50.812Z,40.44
2018-09-30T09:09:19.506Z,40.78
2018-09-30T09:11:48.291Z,41.13
2018-09-30T09:14:17.840Z,41.51
2018-09-30T09:16:46.647Z,41.80
2018-09-30T09:19:15.427Z,42.23
2018-09-30T09:21:44.310Z,42.52
2018-09-30T09:24:12.943Z,42.80
2018-09-30T09:26:41.537Z,42.98
2018-09-30T09:31:49.990Z,43.33
2018-09-30T09:34:18.625Z,43.67
2018-09-30T09:36:55.445Z,44.06
2018-09-30T09:39:24.669Z,44.27
2018-09-30T09:41:53.501Z,44.24
2018-09-30T09:44:25.941Z,44.45
2018-09-30T09:46:55.119Z,44.64
2018-09-30T09:49:23.804Z,44.57
2018-09-30T09:51:52.608Z,44.45
2018-09-30T09:54:21.563Z,44.64
2018-09-30T09:56:51.176Z,45.00
2018-09-30T09:59:20.275Z,45.29
2018-09-30T10:01:48.864Z,45.65
2018-09-30T10:04:17.604Z,46.00
2018-09-30T10:06:46.853Z,46.32
2018-09-30T10:09:20.046Z,46.79
2018-09-30T10:11:49.201Z,47.22
2018-09-30T10:14:17.966Z,47.64
2018-09-30T10:16:46.633Z,48.00
2018-09-30T10:19:15.262Z,48.25
2018-09-30T10:21:43.823Z,48.29
2018-09-30T10:24:12.463Z,48.41
2018-09-30T10:26:41.135Z,48.75
2018-09-30T10:29:12.704Z,49.03
2018-09-30T10:31:41.897Z,49.21
2018-09-30T10:34:11.086Z,49.52
2018-09-30T10:36:45.451Z,49.78
2018-09-30T10:39:21.956Z,50.05
2018-09-30T10:41:55.327Z,50.11
2018-09-30T10:44:24.064Z,50.32
2018-09-30T10:47:18.861Z,50.42
2018-09-30T11:03:56.047Z,52.40
2018-09-30T11:06:25.693Z,52.62
2018-09-30T11:08:54.168Z,52.66
2018-09-30T11:11:22.639Z,52.68
2018-09-30T11:13:51.136Z,52.69
2018-09-30T11:16:19.595Z,52.79
2018-09-30T11:18:48.097Z,52.85
2018-09-30T11:21:16.537Z,53.02
2018-09-30T11:23:45.019Z,53.34
2018-09-30T11:26:13.484Z,53.68
2018-09-30T11:28:41.936Z,53.96
2018-09-30T11:31:10.392Z,54.23
2018-09-30T11:33:38.906Z,54.50
2018-09-30T11:36:07.413Z,54.69
2018-09-30T11:38:35.893Z,54.68
2018-09-30T11:41:04.392Z,54.68
2018-09-30T11:43:32.928Z,54.75
2018-09-30T11:46:01.427Z,54.42
2018-09-30T11:48:29.973Z,54.78
2018-09-30T11:50:58.465Z,55.15
2018-09-30T11:53:27.087Z,54.89
2018-09-30T11:55:55.671Z,53.97
2018-09-30T11:58:24.189Z,53.03
2018-09-30T12:00:52.653Z,52.31
2018-09-30T12:03:21.147Z,51.34
2018-09-30T12:05:49.659Z,49.71
2018-09-30T12:08:18.166Z,47.57
2018-09-30T12:10:46.638Z,45.11
2018-09-30T12:13:15.088Z,42.75
2018-09-30T12:15:43.587Z,40.59
2018-09-30T12:18:12.039Z,38.83
2018-09-30T12:20:40.612Z,37.41
2018-09-30T12:23:09.251Z,36.04
2018-09-30T12:25:37.840Z,34.99
2018-09-30T12:28:06.541Z,34.03
2018-09-30T12:30:35.275Z,33.20
2018-09-30T12:33:03.828Z,32.48
2018-09-30T12:35:32.385Z,31.87
2018-09-30T12:38:00.922Z,31.33
2018-09-30T12:40:29.648Z,30.82
2018-09-30T12:42:58.237Z,30.37
2018-09-30T12:45:26.775Z,30.04
2018-09-30T12:47:55.301Z,29.73
2018-09-30T12:50:23.843Z,29.45
2018-09-30T12:52:52.370Z,29.13
2018-09-30T12:55:20.919Z,28.79
2018-09-30T13:00:28.556Z,28.34
2018-09-30T13:02:57.103Z,28.20
2018-09-30T13:05:25.793Z,28.00
2018-09-30T13:07:54.433Z,27.89
2018-09-30T13:10:23.096Z,27.81
2018-09-30T13:12:55.774Z,27.69
2018-09-30T13:15:24.422Z,27.54
2018-09-30T13:17:52.997Z,27.42
2018-09-30T13:20:21.645Z,27.28
2018-09-30T13:22:51.610Z,27.17
2018-09-30T13:25:20.234Z,27.10
2018-09-30T13:27:48.815Z,27.02
2018-09-30T13:30:17.491Z,26.92
2018-09-30T13:32:46.229Z,26.79
2018-09-30T13:35:14.910Z,26.71
2018-09-30T13:37:43.676Z,26.62
2018-09-30T13:40:12.417Z,26.42
2018-09-30T13:42:40.999Z,26.25
2018-09-30T13:45:09.755Z,26.12
2018-09-30T13:47:38.485Z,25.76
2018-09-30T13:50:07.236Z,25.96
2018-09-30T13:52:35.813Z,25.92
2018-09-30T13:55:04.401Z,25.81
2018-09-30T13:57:33.072Z,25.69
2018-09-30T14:00:01.821Z,25.60
2018-09-30T14:02:30.391Z,25.58
2018-09-30T14:04:58.989Z,25.52
2018-09-30T14:07:27.550Z,25.50
2018-09-30T14:09:56.176Z,25.43
2018-09-30T14:12:27.065Z,25.36
2018-09-30T14:14:55.881Z,22.22
2018-09-30T14:17:24.847Z,25.33
2018-09-30T14:19:53.461Z,25.29
2018-09-30T14:22:22.282Z,25.24
2018-09-30T14:24:50.866Z,25.17
2018-09-30T14:27:19.668Z,25.09
2018-09-30T14:29:48.059Z,25.05
2018-09-30T14:32:16.603Z,24.99
2018-09-30T14:34:45.230Z,24.94
2018-09-30T14:37:13.852Z,24.90
2018-09-30T14:39:42.576Z,24.88
2018-09-30T14:42:11.184Z,24.85
2018-09-30T14:44:39.935Z,24.73
2018-09-30T14:47:08.602Z,24.18
2018-09-30T14:49:37.326Z,24.59
2018-09-30T14:52:06.013Z,24.53
2018-09-30T14:54:34.666Z,24.44
2018-09-30T14:57:03.363Z,24.41
2018-09-30T14:59:32.057Z,24.35
2018-09-30T15:02:00.800Z,24.27
2018-09-30T15:04:29.445Z,24.24
2018-09-30T15:06:58.052Z,24.17
2018-09-30T15:09:26.726Z,24.09
2018-09-30T15:11:55.389Z,24.05
2018-09-30T15:14:24.052Z,23.98
2018-09-30T15:16:52.731Z,23.93
2018-09-30T15:19:21.364Z,23.85
2018-09-30T15:21:50.007Z,23.80
2018-09-30T15:24:18.643Z,23.74
2018-09-30T15:26:47.398Z,23.67
2018-09-30T15:29:15.964Z,23.61
2018-09-30T15:31:44.686Z,23.53
2018-09-30T15:34:13.292Z,23.47
2018-09-30T15:36:41.908Z,23.40
2018-09-30T15:39:12.313Z,23.33
2018-09-30T15:41:41.525Z,23.25
2018-09-30T15:44:11.156Z,23.20
2018-09-30T15:46:39.725Z,23.13
2018-09-30T15:49:08.533Z,23.06
2018-09-30T15:51:37.281Z,22.97
2018-09-30T15:54:05.995Z,22.91
2018-09-30T15:56:34.634Z,22.84
2018-09-30T15:59:03.214Z,22.74
2018-09-30T16:01:31.783Z,22.69
2018-09-30T16:04:00.573Z,22.63
2018-09-30T16:06:29.246Z,22.54
2018-09-30T16:08:58.016Z,22.50
2018-09-30T16:11:26.666Z,22.44
2018-09-30T16:13:55.463Z,22.36
2018-09-30T16:16:24.076Z,22.28
2018-09-30T16:18:52.724Z,22.21
2018-09-30T16:21:21.483Z,21.35
2018-09-30T16:23:50.063Z,22.06
2018-09-30T16:26:18.846Z,21.98
2018-09-30T16:28:47.466Z,21.92
2018-09-30T16:31:16.188Z,21.84
2018-09-30T16:33:44.777Z,21.77
2018-09-30T16:36:13.510Z,21.71
2018-09-30T16:38:42.282Z,21.61
2018-09-30T16:41:11.012Z,21.49
2018-09-30T16:43:39.762Z,21.41
2018-09-30T16:46:08.427Z,21.30
2018-09-30T16:48:37.117Z,21.19
2018-09-30T16:51:05.810Z,21.10
2018-09-30T16:53:34.483Z,21.02
2018-09-30T16:56:03.064Z,20.92
2018-09-30T16:58:31.907Z,20.83
2018-09-30T17:01:00.605Z,20.74
2018-09-30T17:03:29.393Z,20.65
2018-09-30T17:05:58.028Z,20.56
2018-09-30T17:08:27.043Z,20.47
2018-09-30T17:10:55.638Z,20.35
2018-09-30T17:13:24.406Z,20.23
2018-09-30T17:15:53.433Z,20.12
2018-09-30T17:18:22.247Z,20.03
2018-09-30T17:20:51.104Z,19.93
2018-09-30T17:23:19.821Z,19.83
2018-09-30T17:25:48.585Z,19.76
2018-09-30T17:28:17.451Z,19.67
2018-09-30T17:30:46.157Z,19.58
2018-09-30T17:33:17.109Z,19.48
2018-09-30T17:35:46.077Z,19.38
2018-09-30T17:38:14.819Z,19.26
2018-09-30T17:40:43.420Z,19.18
2018-09-30T17:43:12.163Z,19.09
2018-09-30T17:45:40.884Z,19.00
2018-09-30T17:48:09.758Z,18.93
2018-09-30T17:50:38.496Z,18.84
2018-09-30T17:53:07.356Z,18.74
2018-09-30T17:55:36.444Z,18.66
2018-09-30T17:58:05.067Z,18.57
2018-09-30T18:00:33.852Z,18.50
2018-09-30T18:03:02.788Z,18.44
2018-09-30T18:05:31.464Z,18.35
2018-09-30T18:08:00.501Z,18.24
2018-09-30T18:10:29.546Z,18.20
2018-09-30T18:12:58.745Z,18.11
2018-09-30T18:15:28.041Z,18.04
2018-09-30T18:17:57.041Z,17.99
2018-09-30T18:20:26.854Z,17.91
2018-09-30T18:22:58.097Z,17.84
2018-09-30T18:25:26.950Z,17.76
2018-09-30T18:27:55.740Z,17.72
2018-09-30T18:30:24.501Z,17.67
2018-09-30T18:32:53.314Z,17.62
2018-09-30T18:35:22.180Z,17.55
2018-09-30T18:37:50.903Z,17.49
2018-09-30T18:40:19.650Z,17.29
2018-09-30T18:42:48.476Z,17.40
2018-09-30T18:45:17.346Z,17.35
2018-09-30T18:47:46.267Z,17.31
2018-09-30T18:50:14.961Z,17.28
2018-09-30T18:52:43.741Z,17.24
2018-09-30T18:55:12.396Z,17.19
2018-09-30T18:57:41.010Z,17.14
2018-09-30T19:00:09.680Z,17.08
2018-09-30T19:02:38.378Z,17.03
2018-09-30T19:05:06.974Z,17.01
2018-09-30T19:07:35.566Z,16.99
2018-09-30T19:10:04.135Z,16.95
2018-09-30T19:12:32.740Z,16.89
2018-09-30T19:15:01.344Z,16.85
2018-09-30T19:17:29.921Z,16.80
2018-09-30T19:19:58.576Z,16.78
2018-09-30T19:22:27.154Z,16.74
2018-09-30T19:24:55.708Z,16.67
2018-09-30T19:27:24.751Z,16.65
2018-09-30T19:29:53.417Z,16.61
2018-09-30T19:32:21.990Z,16.58
2018-09-30T19:34:50.566Z,16.57
2018-09-30T19:37:19.180Z,16.56
2018-09-30T19:39:47.797Z,16.54
2018-09-30T19:42:16.383Z,16.53
2018-09-30T19:44:44.958Z,16.54
2018-09-30T19:47:13.544Z,16.57
2018-09-30T19:49:42.180Z,16.63
2018-09-30T19:52:10.723Z,16.70
2018-09-30T19:54:39.293Z,16.76
2018-09-30T19:57:07.845Z,16.80
2018-09-30T19:59:36.489Z,16.83
2018-09-30T20:02:05.070Z,16.85
2018-09-30T20:04:33.609Z,16.88
2018-09-30T20:07:02.328Z,16.89
2018-09-30T20:09:31.012Z,16.89
2018-09-30T20:11:59.449Z,16.82
2018-09-30T20:14:28.144Z,16.78
2018-09-30T20:16:56.650Z,16.71
2018-09-30T20:19:25.621Z,16.67
2018-09-30T20:21:54.146Z,16.63
2018-09-30T20:24:22.690Z,16.58
2018-09-30T20:26:51.249Z,16.54
2018-09-30T20:29:19.810Z,15.95
2018-09-30T20:31:48.464Z,16.48
2018-09-30T20:34:17.071Z,16.47
2018-09-30T20:36:45.719Z,16.45
2018-09-30T20:39:14.399Z,16.47
2018-09-30T20:41:43.073Z,16.47
2018-09-30T20:44:11.747Z,16.47
2018-09-30T20:46:40.466Z,16.47
2018-09-30T20:49:09.068Z,16.46
2018-09-30T20:51:37.773Z,16.45
2018-09-30T20:54:06.427Z,16.45
2018-09-30T20:56:35.028Z,16.45
2018-09-30T20:59:03.633Z,16.45
2018-09-30T21:01:32.521Z,16.45
2018-09-30T21:04:01.185Z,16.44
2018-09-30T21:06:35.984Z,16.42
2018-09-30T21:09:07.133Z,16.42
2018-09-30T21:11:35.834Z,16.41
2018-09-30T21:14:04.694Z,16.43
2018-09-30T21:16:33.364Z,16.44
2018-09-30T21:19:01.887Z,16.43
2018-09-30T21:21:30.593Z,16.43
2018-09-30T21:23:59.212Z,16.44
2018-09-30T21:26:27.753Z,16.45
2018-09-30T21:28:56.316Z,16.44
2018-09-30T21:31:24.908Z,16.45
2018-09-30T21:33:53.475Z,16.46
2018-09-30T21:36:22.061Z,16.45
2018-09-30T21:38:50.633Z,16.48
2018-09-30T21:41:19.174Z,16.48
2018-09-30T21:43:47.630Z,16.47
2018-09-30T21:46:16.123Z,16.46
2018-09-30T21:48:44.825Z,16.46
2018-09-30T21:51:13.374Z,16.47
2018-09-30T21:53:41.925Z,16.46
2018-09-30T21:56:12.272Z,16.45
2018-09-30T21:58:41.337Z,14.83
2018-09-30T22:01:10.754Z,16.45
2018-09-30T22:03:39.261Z,16.44
2018-09-30T22:06:08.105Z,16.42
2018-09-30T22:08:36.679Z,16.42
2018-09-30T22:11:07.576Z,16.41
2018-09-30T22:13:37.371Z,16.38
2018-09-30T22:16:08.836Z,16.35
2018-09-30T22:18:39.498Z,16.33
2018-09-30T22:21:09.202Z,16.33
2018-09-30T22:23:39.550Z,16.32
2018-09-30T22:26:08.942Z,16.29
2018-09-30T22:28:39.553Z,16.29
2018-09-30T22:31:11.154Z,16.28
2018-09-30T22:33:39.641Z,16.27
2018-09-30T22:36:08.134Z,16.27
2018-09-30T22:38:36.627Z,16.26
2018-09-30T22:41:05.158Z,16.24
2018-09-30T22:43:33.717Z,16.22
2018-09-30T22:46:02.253Z,16.20
2018-09-30T22:48:33.514Z,16.21
2018-09-30T22:51:02.060Z,16.18
2018-09-30T22:53:30.517Z,16.17
2018-09-30T22:55:59.121Z,16.15
2018-09-30T22:58:27.698Z,16.14
2018-09-30T23:00:58.204Z,16.12
2018-09-30T23:03:26.849Z,16.09
2018-09-30T23:05:55.377Z,16.07
2018-09-30T23:08:23.878Z,16.06
2018-09-30T23:10:52.455Z,16.04
2018-09-30T23:13:21.294Z,16.03
2018-09-30T23:15:49.828Z,16.02
2018-09-30T23:18:19.482Z,16.01
2018-09-30T23:20:49.066Z,16.00
2018-09-30T23:23:18.811Z,16.01
2018-09-30T23:25:49.499Z,16.01
2018-09-30T23:28:20.201Z,16.02
2018-09-30T23:30:51.220Z,16.01
2018-09-30T23:33:19.776Z,16.01
2018-09-30T23:35:48.255Z,16.02
2018-09-30T23:38:16.692Z,16.04
2018-09-30T23:40:45.151Z,16.05
2018-09-30T23:43:13.625Z,16.04
2018-09-30T23:45:42.090Z,16.05
2018-09-30T23:48:10.588Z,16.08
2018-09-30T23:50:39.113Z,16.13
2018-09-30T23:53:07.544Z,16.15
2018-09-30T23:55:35.943Z,16.16
2018-09-30T23:58:13.892Z,16.17
